sensor_id;sensor_type;location;lat;lon;timestamp;P1;P2;P0
29460;PMS7003;16428;47.836;35.106;2023-03-01T00:01:42;48.33;40.67;29.00
29460;PMS7003;16428;47.836;35.106;2023-03-01T00:04:12;52.33;43.00;29.33
29460;PMS7003;16428;47.836;35.106;2023-03-01T00:06:41;60.33;47.33;30.67
29460;PMS7003;16428;47.836;35.106;2023-03-01T00:09:13;49.00;39.67;30.00
29460;PMS7003;16428;47.836;35.106;2023-03-01T00:11:43;55.00;43.00;30.67
29460;PMS7003;16428;47.836;35.106;2023-03-01T00:14:12;43.33;40.33;25.33
29460;PMS7003;16428;47.836;35.106;2023-03-01T00:16:46;53.00;41.67;27.00
29460;PMS7003;16428;47.836;35.106;2023-03-01T00:19:14;41.33;37.33;25.33
29460;PMS7003;16428;47.836;35.106;2023-03-01T00:21:48;42.00;35.33;24.00
29460;PMS7003;16428;47.836;35.106;2023-03-01T00:24:16;50.33;38.00;26.00
29460;PMS7003;16428;47.836;35.106;2023-03-01T00:26:43;51.67;44.67;30.67
29460;PMS7003;16428;47.836;35.106;2023-03-01T00:29:11;52.67;41.33;29.00
29460;PMS7003;16428;47.836;35.106;2023-03-01T00:31:38;44.67;42.67;30.00
29460;PMS7003;16428;47.836;35.106;2023-03-01T00:34:08;48.00;43.00;29.00
29460;PMS7003;16428;47.836;35.106;2023-03-01T00:36:36;48.33;40.00;28.33
29460;PMS7003;16428;47.836;35.106;2023-03-01T00:39:07;43.33;39.67;28.00
29460;PMS7003;16428;47.836;35.106;2023-03-01T00:41:42;48.33;39.00;28.00
29460;PMS7003;16428;47.836;35.106;2023-03-01T00:44:10;41.33;39.33;28.67
29460;PMS7003;16428;47.836;35.106;2023-03-01T00:46:39;42.67;40.33;29.00
29460;PMS7003;16428;47.836;35.106;2023-03-01T00:49:07;44.33;34.33;23.00
29460;PMS7003;16428;47.836;35.106;2023-03-01T00:51:35;54.67;37.67;27.33
29460;PMS7003;16428;47.836;35.106;2023-03-01T00:54:02;37.67;34.33;25.67
29460;PMS7003;16428;47.836;35.106;2023-03-01T00:56:31;40.00;37.00;27.33
29460;PMS7003;16428;47.836;35.106;2023-03-01T00:58:59;40.67;37.00;26.67
29460;PMS7003;16428;47.836;35.106;2023-03-01T01:01:28;55.00;41.33;28.67
29460;PMS7003;16428;47.836;35.106;2023-03-01T01:04:16;48.67;38.67;25.00
29460;PMS7003;16428;47.836;35.106;2023-03-01T01:06:45;44.33;40.00;28.00
29460;PMS7003;16428;47.836;35.106;2023-03-01T01:09:15;44.00;37.33;27.67
29460;PMS7003;16428;47.836;35.106;2023-03-01T01:11:45;58.00;42.00;30.00
29460;PMS7003;16428;47.836;35.106;2023-03-01T01:14:14;38.67;35.33;26.00
29460;PMS7003;16428;47.836;35.106;2023-03-01T01:16:43;38.33;29.33;16.33
29460;PMS7003;16428;47.836;35.106;2023-03-01T01:19:13;48.00;35.33;26.00
29460;PMS7003;16428;47.836;35.106;2023-03-01T01:21:42;41.67;38.67;28.00
29460;PMS7003;16428;47.836;35.106;2023-03-01T01:24:10;45.33;40.33;26.67
29460;PMS7003;16428;47.836;35.106;2023-03-01T01:26:39;37.00;31.67;22.00
29460;PMS7003;16428;47.836;35.106;2023-03-01T01:29:06;56.00;43.67;29.00
29460;PMS7003;16428;47.836;35.106;2023-03-01T01:31:36;44.33;38.67;26.00
29460;PMS7003;16428;47.836;35.106;2023-03-01T01:34:05;47.67;42.33;29.67
29460;PMS7003;16428;47.836;35.106;2023-03-01T01:36:34;47.00;36.00;25.00
29460;PMS7003;16428;47.836;35.106;2023-03-01T01:39:02;54.33;42.67;29.67
29460;PMS7003;16428;47.836;35.106;2023-03-01T01:41:30;49.00;40.33;26.67
29460;PMS7003;16428;47.836;35.106;2023-03-01T01:46:49;43.33;39.33;27.00
29460;PMS7003;16428;47.836;35.106;2023-03-01T01:51:54;49.00;40.00;28.00
29460;PMS7003;16428;47.836;35.106;2023-03-01T01:57:39;40.00;38.00;27.67
29460;PMS7003;16428;47.836;35.106;2023-03-01T02:02:42;58.00;44.67;32.00
29460;PMS7003;16428;47.836;35.106;2023-03-01T02:05:29;48.33;40.33;29.00
29460;PMS7003;16428;47.836;35.106;2023-03-01T02:08:04;51.00;42.00;30.67
29460;PMS7003;16428;47.836;35.106;2023-03-01T02:10:33;45.67;41.00;24.67
29460;PMS7003;16428;47.836;35.106;2023-03-01T02:13:01;47.67;33.00;24.67
29460;PMS7003;16428;47.836;35.106;2023-03-01T02:15:33;41.33;38.67;28.33
29460;PMS7003;16428;47.836;35.106;2023-03-01T02:18:06;54.00;47.33;31.00
29460;PMS7003;16428;47.836;35.106;2023-03-01T02:23:30;40.33;39.67;30.33
29460;PMS7003;16428;47.836;35.106;2023-03-01T02:28:51;49.00;35.00;27.33
29460;PMS7003;16428;47.836;35.106;2023-03-01T02:31:19;42.67;35.00;25.67
29460;PMS7003;16428;47.836;35.106;2023-03-01T02:34:07;45.00;38.67;26.33
29460;PMS7003;16428;47.836;35.106;2023-03-01T02:39:27;53.00;43.00;31.33
29460;PMS7003;16428;47.836;35.106;2023-03-01T02:42:13;40.00;37.67;27.00
29460;PMS7003;16428;47.836;35.106;2023-03-01T02:44:44;45.67;37.67;28.33
29460;PMS7003;16428;47.836;35.106;2023-03-01T02:47:11;45.00;38.00;26.67
29460;PMS7003;16428;47.836;35.106;2023-03-01T02:49:41;51.33;35.33;26.33
29460;PMS7003;16428;47.836;35.106;2023-03-01T02:55:17;43.67;39.67;28.33
29460;PMS7003;16428;47.836;35.106;2023-03-01T02:57:45;45.33;36.33;25.00
29460;PMS7003;16428;47.836;35.106;2023-03-01T03:00:21;28.00;25.33;16.67
29460;PMS7003;16428;47.836;35.106;2023-03-01T03:02:54;44.67;38.67;29.00
29460;PMS7003;16428;47.836;35.106;2023-03-01T03:05:26;47.00;40.00;25.67
29460;PMS7003;16428;47.836;35.106;2023-03-01T03:07:55;50.00;37.00;25.33
29460;PMS7003;16428;47.836;35.106;2023-03-01T03:10:27;46.67;41.33;27.00
29460;PMS7003;16428;47.836;35.106;2023-03-01T03:13:11;38.00;37.00;27.33
29460;PMS7003;16428;47.836;35.106;2023-03-01T03:15:42;46.33;38.67;27.00
29460;PMS7003;16428;47.836;35.106;2023-03-01T03:18:15;32.00;32.00;23.00
29460;PMS7003;16428;47.836;35.106;2023-03-01T03:20:44;41.67;36.33;27.00
29460;PMS7003;16428;47.836;35.106;2023-03-01T03:23:12;47.33;35.00;27.00
29460;PMS7003;16428;47.836;35.106;2023-03-01T03:25:40;40.33;38.00;25.33
29460;PMS7003;16428;47.836;35.106;2023-03-01T03:28:08;28.00;26.67;20.00
29460;PMS7003;16428;47.836;35.106;2023-03-01T03:30:39;41.33;39.00;26.33
29460;PMS7003;16428;47.836;35.106;2023-03-01T03:33:08;45.67;40.33;27.00
29460;PMS7003;16428;47.836;35.106;2023-03-01T03:35:44;53.33;45.33;32.00
29460;PMS7003;16428;47.836;35.106;2023-03-01T03:38:14;49.00;40.67;29.00
29460;PMS7003;16428;47.836;35.106;2023-03-01T03:40:45;37.33;35.67;26.00
29460;PMS7003;16428;47.836;35.106;2023-03-01T03:43:21;45.00;35.00;24.67
29460;PMS7003;16428;47.836;35.106;2023-03-01T03:45:50;34.33;31.00;20.00
29460;PMS7003;16428;47.836;35.106;2023-03-01T03:48:19;34.67;34.67;24.00
29460;PMS7003;16428;47.836;35.106;2023-03-01T03:50:49;39.33;34.67;23.33
29460;PMS7003;16428;47.836;35.106;2023-03-01T03:53:18;40.00;36.33;25.00
29460;PMS7003;16428;47.836;35.106;2023-03-01T03:55:47;47.33;38.67;25.33
29460;PMS7003;16428;47.836;35.106;2023-03-01T03:58:20;42.00;35.67;24.67
29460;PMS7003;16428;47.836;35.106;2023-03-01T04:00:51;42.67;38.67;27.00
29460;PMS7003;16428;47.836;35.106;2023-03-01T04:03:20;42.00;38.33;26.00
29460;PMS7003;16428;47.836;35.106;2023-03-01T04:05:49;39.00;35.00;26.33
29460;PMS7003;16428;47.836;35.106;2023-03-01T04:08:18;46.67;35.00;25.00
29460;PMS7003;16428;47.836;35.106;2023-03-01T04:10:52;46.33;39.33;27.00
29460;PMS7003;16428;47.836;35.106;2023-03-01T04:13:25;41.33;40.00;28.33
29460;PMS7003;16428;47.836;35.106;2023-03-01T04:15:54;34.33;32.00;24.00
29460;PMS7003;16428;47.836;35.106;2023-03-01T04:18:22;42.00;37.67;24.67
29460;PMS7003;16428;47.836;35.106;2023-03-01T04:20:51;38.33;32.67;20.67
29460;PMS7003;16428;47.836;35.106;2023-03-01T04:23:22;52.67;43.33;30.33
29460;PMS7003;16428;47.836;35.106;2023-03-01T04:25:54;54.00;35.00;24.00
29460;PMS7003;16428;47.836;35.106;2023-03-01T04:28:26;37.33;31.00;25.00
29460;PMS7003;16428;47.836;35.106;2023-03-01T04:30:56;36.33;36.33;25.33
29460;PMS7003;16428;47.836;35.106;2023-03-01T04:33:25;48.33;36.00;27.00
29460;PMS7003;16428;47.836;35.106;2023-03-01T04:35:53;46.67;37.33;28.00
29460;PMS7003;16428;47.836;35.106;2023-03-01T04:38:20;42.67;29.67;19.00
29460;PMS7003;16428;47.836;35.106;2023-03-01T04:40:48;37.00;25.00;19.00
29460;PMS7003;16428;47.836;35.106;2023-03-01T04:43:15;41.00;32.00;23.00
29460;PMS7003;16428;47.836;35.106;2023-03-01T04:45:44;37.33;30.33;20.33
29460;PMS7003;16428;47.836;35.106;2023-03-01T04:48:12;26.67;26.67;23.00
29460;PMS7003;16428;47.836;35.106;2023-03-01T04:50:39;40.00;33.33;23.67
29460;PMS7003;16428;47.836;35.106;2023-03-01T04:53:06;36.67;34.33;25.00
29460;PMS7003;16428;47.836;35.106;2023-03-01T04:55:35;45.33;36.00;25.67
29460;PMS7003;16428;47.836;35.106;2023-03-01T04:58:03;47.00;42.00;27.00
29460;PMS7003;16428;47.836;35.106;2023-03-01T05:00:34;32.33;27.33;18.33
29460;PMS7003;16428;47.836;35.106;2023-03-01T05:03:01;41.33;34.33;25.00
29460;PMS7003;16428;47.836;35.106;2023-03-01T05:05:33;44.00;39.33;26.00
29460;PMS7003;16428;47.836;35.106;2023-03-01T05:08:23;41.33;34.67;27.00
29460;PMS7003;16428;47.836;35.106;2023-03-01T05:10:51;38.33;32.00;25.67
29460;PMS7003;16428;47.836;35.106;2023-03-01T05:13:20;33.67;29.33;25.33
29460;PMS7003;16428;47.836;35.106;2023-03-01T05:15:49;47.00;39.33;25.67
29460;PMS7003;16428;47.836;35.106;2023-03-01T05:18:25;35.00;28.67;23.00
29460;PMS7003;16428;47.836;35.106;2023-03-01T05:20:55;34.33;27.00;16.67
29460;PMS7003;16428;47.836;35.106;2023-03-01T05:23:32;37.33;30.33;24.33
29460;PMS7003;16428;47.836;35.106;2023-03-01T05:26:01;35.00;33.33;24.00
29460;PMS7003;16428;47.836;35.106;2023-03-01T05:28:33;40.67;38.33;28.33
29460;PMS7003;16428;47.836;35.106;2023-03-01T05:31:01;37.67;37.67;29.00
29460;PMS7003;16428;47.836;35.106;2023-03-01T05:33:29;41.00;34.33;24.00
29460;PMS7003;16428;47.836;35.106;2023-03-01T05:35:59;29.67;29.67;16.00
29460;PMS7003;16428;47.836;35.106;2023-03-01T05:38:28;43.33;38.67;25.67
29460;PMS7003;16428;47.836;35.106;2023-03-01T05:40:56;40.33;39.00;26.00
29460;PMS7003;16428;47.836;35.106;2023-03-01T05:43:24;40.33;33.67;24.67
29460;PMS7003;16428;47.836;35.106;2023-03-01T05:45:52;38.67;31.00;22.00
29460;PMS7003;16428;47.836;35.106;2023-03-01T05:48:20;50.67;32.00;23.00
29460;PMS7003;16428;47.836;35.106;2023-03-01T05:50:47;39.33;37.67;26.67
29460;PMS7003;16428;47.836;35.106;2023-03-01T05:53:17;40.33;34.00;22.00
29460;PMS7003;16428;47.836;35.106;2023-03-01T05:55:49;32.00;29.67;24.67
29460;PMS7003;16428;47.836;35.106;2023-03-01T05:58:17;44.00;34.00;24.67
29460;PMS7003;16428;47.836;35.106;2023-03-01T06:00:47;37.67;31.33;20.67
29460;PMS7003;16428;47.836;35.106;2023-03-01T06:03:17;32.33;23.33;20.00
29460;PMS7003;16428;47.836;35.106;2023-03-01T06:05:47;37.00;26.33;17.33
29460;PMS7003;16428;47.836;35.106;2023-03-01T06:08:14;31.00;27.67;20.67
29460;PMS7003;16428;47.836;35.106;2023-03-01T06:10:45;36.33;30.67;19.67
29460;PMS7003;16428;47.836;35.106;2023-03-01T06:13:14;37.33;29.33;19.00
29460;PMS7003;16428;47.836;35.106;2023-03-01T06:15:43;34.67;29.00;22.33
29460;PMS7003;16428;47.836;35.106;2023-03-01T06:18:10;34.33;27.33;21.67
29460;PMS7003;16428;47.836;35.106;2023-03-01T06:20:38;20.33;16.67;13.00
29460;PMS7003;16428;47.836;35.106;2023-03-01T06:23:06;42.00;31.33;23.00
29460;PMS7003;16428;47.836;35.106;2023-03-01T06:25:35;37.67;31.00;23.67
29460;PMS7003;16428;47.836;35.106;2023-03-01T06:28:08;46.33;29.00;22.33
29460;PMS7003;16428;47.836;35.106;2023-03-01T06:30:38;31.67;28.67;21.33
29460;PMS7003;16428;47.836;35.106;2023-03-01T06:33:06;37.33;26.67;20.33
29460;PMS7003;16428;47.836;35.106;2023-03-01T06:35:34;31.00;29.00;21.67
29460;PMS7003;16428;47.836;35.106;2023-03-01T06:38:02;37.00;31.67;25.33
29460;PMS7003;16428;47.836;35.106;2023-03-01T06:40:32;41.33;31.67;22.67
29460;PMS7003;16428;47.836;35.106;2023-03-01T06:43:02;33.00;30.33;23.67
29460;PMS7003;16428;47.836;35.106;2023-03-01T06:45:30;39.00;31.00;21.67
29460;PMS7003;16428;47.836;35.106;2023-03-01T06:48:01;37.67;33.00;21.33
29460;PMS7003;16428;47.836;35.106;2023-03-01T06:50:38;36.00;27.00;22.33
29460;PMS7003;16428;47.836;35.106;2023-03-01T06:53:05;38.00;31.33;23.67
29460;PMS7003;16428;47.836;35.106;2023-03-01T06:55:33;40.00;30.00;21.67
29460;PMS7003;16428;47.836;35.106;2023-03-01T06:58:01;24.33;14.00;8.67
29460;PMS7003;16428;47.836;35.106;2023-03-01T07:00:30;23.25;19.25;15.50
29460;PMS7003;16428;47.836;35.106;2023-03-01T07:02:58;30.67;28.00;21.67
29460;PMS7003;16428;47.836;35.106;2023-03-01T07:05:29;7.25;6.00;1.00
29460;PMS7003;16428;47.836;35.106;2023-03-01T07:07:58;29.75;26.75;19.75
29460;PMS7003;16428;47.836;35.106;2023-03-01T07:10:26;38.50;26.75;20.50
29460;PMS7003;16428;47.836;35.106;2023-03-01T07:12:57;33.25;31.50;20.75
29460;PMS7003;16428;47.836;35.106;2023-03-01T07:15:26;35.00;28.00;22.00
29460;PMS7003;16428;47.836;35.106;2023-03-01T07:17:55;31.25;29.25;21.50
29460;PMS7003;16428;47.836;35.106;2023-03-01T07:20:23;37.75;33.25;24.00
29460;PMS7003;16428;47.836;35.106;2023-03-01T07:22:53;24.00;22.00;21.00
29460;PMS7003;16428;47.836;35.106;2023-03-01T07:25:21;30.00;25.50;21.75
29460;PMS7003;16428;47.836;35.106;2023-03-01T07:27:50;27.75;27.75;22.75
29460;PMS7003;16428;47.836;35.106;2023-03-01T07:30:19;36.25;33.75;23.25
29460;PMS7003;16428;47.836;35.106;2023-03-01T07:32:48;24.00;24.00;16.50
29460;PMS7003;16428;47.836;35.106;2023-03-01T07:35:15;34.75;27.50;20.75
29460;PMS7003;16428;47.836;35.106;2023-03-01T07:37:43;26.25;24.25;20.25
29460;PMS7003;16428;47.836;35.106;2023-03-01T07:40:11;35.75;31.75;19.50
29460;PMS7003;16428;47.836;35.106;2023-03-01T07:42:39;25.25;25.25;20.00
29460;PMS7003;16428;47.836;35.106;2023-03-01T07:45:27;38.75;31.00;21.25
29460;PMS7003;16428;47.836;35.106;2023-03-01T07:47:56;27.25;22.75;16.25
29460;PMS7003;16428;47.836;35.106;2023-03-01T07:50:23;35.75;32.00;22.25
29460;PMS7003;16428;47.836;35.106;2023-03-01T07:52:51;36.25;29.25;21.00
29460;PMS7003;16428;47.836;35.106;2023-03-01T07:55:18;32.00;28.25;21.50
29460;PMS7003;16428;47.836;35.106;2023-03-01T07:57:47;37.50;25.50;19.75
29460;PMS7003;16428;47.836;35.106;2023-03-01T08:00:14;28.25;26.00;18.25
29460;PMS7003;16428;47.836;35.106;2023-03-01T08:02:42;25.00;21.00;15.25
29460;PMS7003;16428;47.836;35.106;2023-03-01T08:05:09;31.75;27.75;19.00
29460;PMS7003;16428;47.836;35.106;2023-03-01T08:07:37;23.25;22.00;17.25
29460;PMS7003;16428;47.836;35.106;2023-03-01T08:10:05;31.00;28.75;20.00
29460;PMS7003;16428;47.836;35.106;2023-03-01T08:12:33;26.25;20.50;15.00
29460;PMS7003;16428;47.836;35.106;2023-03-01T08:15:01;18.75;16.75;11.50
29460;PMS7003;16428;47.836;35.106;2023-03-01T08:17:29;29.25;25.50;19.00
29460;PMS7003;16428;47.836;35.106;2023-03-01T08:19:57;25.50;22.25;16.00
29460;PMS7003;16428;47.836;35.106;2023-03-01T08:22:24;21.00;20.50;15.50
29460;PMS7003;16428;47.836;35.106;2023-03-01T08:24:52;25.50;22.25;15.00
29460;PMS7003;16428;47.836;35.106;2023-03-01T08:27:19;22.50;21.00;16.75
29460;PMS7003;16428;47.836;35.106;2023-03-01T08:29:48;24.25;19.75;14.25
29460;PMS7003;16428;47.836;35.106;2023-03-01T08:32:15;22.50;22.00;17.25
29460;PMS7003;16428;47.836;35.106;2023-03-01T08:34:48;26.00;21.75;15.50
29460;PMS7003;16428;47.836;35.106;2023-03-01T08:37:15;15.00;12.75;10.75
29460;PMS7003;16428;47.836;35.106;2023-03-01T08:39:43;24.50;22.50;17.50
29460;PMS7003;16428;47.836;35.106;2023-03-01T08:42:10;19.25;18.00;14.00
29460;PMS7003;16428;47.836;35.106;2023-03-01T08:44:38;19.25;19.25;14.75
29460;PMS7003;16428;47.836;35.106;2023-03-01T08:47:06;23.50;18.25;13.75
29460;PMS7003;16428;47.836;35.106;2023-03-01T08:49:33;19.75;18.00;13.75
29460;PMS7003;16428;47.836;35.106;2023-03-01T08:52:01;18.00;18.00;13.25
29460;PMS7003;16428;47.836;35.106;2023-03-01T08:54:32;20.50;20.50;17.75
29460;PMS7003;16428;47.836;35.106;2023-03-01T08:57:03;17.00;14.50;11.50
29460;PMS7003;16428;47.836;35.106;2023-03-01T08:59:31;15.50;15.50;12.00
29460;PMS7003;16428;47.836;35.106;2023-03-01T09:02:04;17.50;12.25;8.00
29460;PMS7003;16428;47.836;35.106;2023-03-01T09:04:37;21.25;20.25;15.25
29460;PMS7003;16428;47.836;35.106;2023-03-01T09:07:06;19.00;17.25;14.25
29460;PMS7003;16428;47.836;35.106;2023-03-01T09:09:36;15.50;12.75;9.50
29460;PMS7003;16428;47.836;35.106;2023-03-01T09:12:04;18.75;16.50;11.50
29460;PMS7003;16428;47.836;35.106;2023-03-01T09:14:35;20.00;16.25;10.75
29460;PMS7003;16428;47.836;35.106;2023-03-01T09:17:06;19.25;19.25;14.00
29460;PMS7003;16428;47.836;35.106;2023-03-01T09:19:33;16.75;16.25;10.00
29460;PMS7003;16428;47.836;35.106;2023-03-01T09:22:02;19.25;12.75;9.00
29460;PMS7003;16428;47.836;35.106;2023-03-01T09:24:31;17.75;17.25;14.25
29460;PMS7003;16428;47.836;35.106;2023-03-01T09:27:00;15.75;15.75;10.00
29460;PMS7003;16428;47.836;35.106;2023-03-01T09:29:28;14.50;13.50;11.75
29460;PMS7003;16428;47.836;35.106;2023-03-01T09:31:56;16.50;14.75;11.50
29460;PMS7003;16428;47.836;35.106;2023-03-01T09:34:24;19.50;13.50;10.75
29460;PMS7003;16428;47.836;35.106;2023-03-01T09:36:53;14.50;13.75;11.50
29460;PMS7003;16428;47.836;35.106;2023-03-01T09:39:20;16.75;13.75;10.50
29460;PMS7003;16428;47.836;35.106;2023-03-01T09:41:57;21.75;16.50;11.50
29460;PMS7003;16428;47.836;35.106;2023-03-01T09:44:36;11.25;10.75;8.25
29460;PMS7003;16428;47.836;35.106;2023-03-01T09:47:16;16.50;16.50;12.50
29460;PMS7003;16428;47.836;35.106;2023-03-01T09:52:40;12.00;11.25;8.00
29460;PMS7003;16428;47.836;35.106;2023-03-01T09:55:13;12.25;11.25;8.75
29460;PMS7003;16428;47.836;35.106;2023-03-01T09:57:46;11.75;11.75;10.00
29460;PMS7003;16428;47.836;35.106;2023-03-01T10:00:33;12.75;11.00;8.00
29460;PMS7003;16428;47.836;35.106;2023-03-01T10:11:22;15.00;12.50;9.25
29460;PMS7003;16428;47.836;35.106;2023-03-01T10:14:04;8.75;7.75;6.75
29460;PMS7003;16428;47.836;35.106;2023-03-01T10:16:52;20.00;13.00;8.50
29460;PMS7003;16428;47.836;35.106;2023-03-01T10:22:11;12.50;12.50;9.25
29460;PMS7003;16428;47.836;35.106;2023-03-01T10:24:43;20.25;17.00;10.75
29460;PMS7003;16428;47.836;35.106;2023-03-01T10:32:53;15.25;14.00;10.00
29460;PMS7003;16428;47.836;35.106;2023-03-01T10:35:27;14.25;12.00;9.50
29460;PMS7003;16428;47.836;35.106;2023-03-01T10:40:33;9.50;9.25;8.50
29460;PMS7003;16428;47.836;35.106;2023-03-01T10:43:02;9.50;8.50;7.75
29460;PMS7003;16428;47.836;35.106;2023-03-01T10:48:25;13.25;11.00;9.00
29460;PMS7003;16428;47.836;35.106;2023-03-01T10:53:37;19.75;10.75;9.25
29460;PMS7003;16428;47.836;35.106;2023-03-01T10:56:11;10.00;10.00;8.50
29460;PMS7003;16428;47.836;35.106;2023-03-01T10:59:02;13.25;11.75;10.00
29460;PMS7003;16428;47.836;35.106;2023-03-01T11:01:33;11.75;10.50;8.50
29460;PMS7003;16428;47.836;35.106;2023-03-01T11:06:34;11.50;8.50;7.00
29460;PMS7003;16428;47.836;35.106;2023-03-01T11:09:15;14.50;10.75;9.75
29460;PMS7003;16428;47.836;35.106;2023-03-01T11:11:43;18.00;14.75;10.50
29460;PMS7003;16428;47.836;35.106;2023-03-01T11:14:24;11.00;11.00;9.00
29460;PMS7003;16428;47.836;35.106;2023-03-01T11:17:30;16.00;13.50;9.50
29460;PMS7003;16428;47.836;35.106;2023-03-01T11:22:46;9.00;7.75;6.75
29460;PMS7003;16428;47.836;35.106;2023-03-01T11:25:21;10.50;9.75;8.00
29460;PMS7003;16428;47.836;35.106;2023-03-01T11:27:57;13.75;10.50;9.00
29460;PMS7003;16428;47.836;35.106;2023-03-01T11:30:32;10.00;10.00;7.50
29460;PMS7003;16428;47.836;35.106;2023-03-01T11:39:04;10.00;9.00;8.00
29460;PMS7003;16428;47.836;35.106;2023-03-01T11:41:43;9.00;8.50;8.25
29460;PMS7003;16428;47.836;35.106;2023-03-01T11:44:21;8.00;8.00;6.25
29460;PMS7003;16428;47.836;35.106;2023-03-01T11:58:18;11.00;11.00;7.25
29460;PMS7003;16428;47.836;35.106;2023-03-01T12:06:00;12.00;10.25;8.25
29460;PMS7003;16428;47.836;35.106;2023-03-01T12:17:36;8.50;8.00;5.75
29460;PMS7003;16428;47.836;35.106;2023-03-01T12:20:20;9.25;9.25;8.25
29460;PMS7003;16428;47.836;35.106;2023-03-01T12:22:58;10.25;10.25;9.00
29460;PMS7003;16428;47.836;35.106;2023-03-01T12:28:39;9.33;5.67;5.00
29460;PMS7003;16428;47.836;35.106;2023-03-01T12:34:43;11.67;8.67;7.33
29460;PMS7003;16428;47.836;35.106;2023-03-01T12:37:25;16.50;13.25;11.50
29460;PMS7003;16428;47.836;35.106;2023-03-01T12:51:19;11.67;9.67;8.67
29460;PMS7003;16428;47.836;35.106;2023-03-01T12:53:53;3.00;2.00;1.00
29460;PMS7003;16428;47.836;35.106;2023-03-01T12:56:24;10.00;9.33;7.00
29460;PMS7003;16428;47.836;35.106;2023-03-01T12:59:03;9.00;6.25;5.00
29460;PMS7003;16428;47.836;35.106;2023-03-01T13:02:17;8.00;8.00;7.25
29460;PMS7003;16428;47.836;35.106;2023-03-01T13:18:37;10.00;6.67;5.00
29460;PMS7003;16428;47.836;35.106;2023-03-01T13:26:11;5.75;5.75;5.25
29460;PMS7003;16428;47.836;35.106;2023-03-01T13:28:54;10.25;7.25;5.75
29460;PMS7003;16428;47.836;35.106;2023-03-01T13:33:55;9.75;9.75;7.00
29460;PMS7003;16428;47.836;35.106;2023-03-01T13:38:58;14.50;13.00;10.00
29460;PMS7003;16428;47.836;35.106;2023-03-01T13:54:51;11.75;11.75;11.00
29460;PMS7003;16428;47.836;35.106;2023-03-01T13:57:21;13.50;13.50;9.50
29460;PMS7003;16428;47.836;35.106;2023-03-01T13:59:56;11.75;11.00;9.50
29460;PMS7003;16428;47.836;35.106;2023-03-01T14:02:27;15.50;10.75;9.00
29460;PMS7003;16428;47.836;35.106;2023-03-01T14:04:56;9.25;9.25;8.00
29460;PMS7003;16428;47.836;35.106;2023-03-01T14:07:26;15.25;13.25;10.00
29460;PMS7003;16428;47.836;35.106;2023-03-01T14:10:00;18.75;12.25;8.75
29460;PMS7003;16428;47.836;35.106;2023-03-01T14:15:36;17.00;15.75;11.00
29460;PMS7003;16428;47.836;35.106;2023-03-01T14:18:12;17.00;17.00;13.50
29460;PMS7003;16428;47.836;35.106;2023-03-01T14:20:48;11.25;11.25;9.75
29460;PMS7003;16428;47.836;35.106;2023-03-01T14:23:23;20.00;16.75;12.00
29460;PMS7003;16428;47.836;35.106;2023-03-01T14:25:51;15.25;15.25;9.00
29460;PMS7003;16428;47.836;35.106;2023-03-01T14:28:30;18.75;12.75;9.75
29460;PMS7003;16428;47.836;35.106;2023-03-01T14:31:29;14.00;10.00;9.00
29460;PMS7003;16428;47.836;35.106;2023-03-01T14:33:55;11.75;7.00;5.50
29460;PMS7003;16428;47.836;35.106;2023-03-01T14:36:27;18.25;17.25;13.25
29460;PMS7003;16428;47.836;35.106;2023-03-01T14:38:59;19.75;17.25;12.50
29460;PMS7003;16428;47.836;35.106;2023-03-01T14:41:33;17.50;16.50;13.00
29460;PMS7003;16428;47.836;35.106;2023-03-01T14:44:06;21.00;17.75;13.00
29460;PMS7003;16428;47.836;35.106;2023-03-01T14:46:43;17.00;16.00;12.75
29460;PMS7003;16428;47.836;35.106;2023-03-01T14:49:16;19.25;18.50;14.75
29460;PMS7003;16428;47.836;35.106;2023-03-01T14:51:57;18.25;18.25;13.50
29460;PMS7003;16428;47.836;35.106;2023-03-01T14:57:03;16.00;16.00;13.50
29460;PMS7003;16428;47.836;35.106;2023-03-01T14:59:33;26.25;22.25;17.50
29460;PMS7003;16428;47.836;35.106;2023-03-01T15:02:01;25.25;23.50;18.25
29460;PMS7003;16428;47.836;35.106;2023-03-01T15:04:30;21.00;20.25;16.25
29460;PMS7003;16428;47.836;35.106;2023-03-01T15:06:58;33.50;31.00;23.25
29460;PMS7003;16428;47.836;35.106;2023-03-01T15:09:32;27.25;22.50;16.75
29460;PMS7003;16428;47.836;35.106;2023-03-01T15:15:49;27.25;25.00;21.50
29460;PMS7003;16428;47.836;35.106;2023-03-01T15:18:12;32.25;26.50;19.00
29460;PMS7003;16428;47.836;35.106;2023-03-01T15:20:47;26.00;25.75;18.75
29460;PMS7003;16428;47.836;35.106;2023-03-01T15:23:18;28.25;27.50;21.00
29460;PMS7003;16428;47.836;35.106;2023-03-01T15:25:49;41.00;32.50;23.00
29460;PMS7003;16428;47.836;35.106;2023-03-01T15:28:25;29.25;25.50;18.25
29460;PMS7003;16428;47.836;35.106;2023-03-01T15:30:57;39.00;34.00;22.25
29460;PMS7003;16428;47.836;35.106;2023-03-01T15:33:28;26.25;25.25;20.50
29460;PMS7003;16428;47.836;35.106;2023-03-01T15:35:58;33.25;28.00;19.50
29460;PMS7003;16428;47.836;35.106;2023-03-01T15:40:59;31.75;30.50;20.50
29460;PMS7003;16428;47.836;35.106;2023-03-01T15:44:13;33.50;29.00;22.75
29460;PMS7003;16428;47.836;35.106;2023-03-01T15:46:28;37.25;34.50;24.00
29460;PMS7003;16428;47.836;35.106;2023-03-01T15:49:05;30.00;25.00;20.00
29460;PMS7003;16428;47.836;35.106;2023-03-01T15:51:52;30.75;29.75;22.75
29460;PMS7003;16428;47.836;35.106;2023-03-01T15:54:22;19.00;18.50;14.00
29460;PMS7003;16428;47.836;35.106;2023-03-01T15:56:52;34.25;26.75;22.75
29460;PMS7003;16428;47.836;35.106;2023-03-01T15:59:20;27.25;22.25;14.00
29460;PMS7003;16428;47.836;35.106;2023-03-01T16:01:49;23.25;22.00;17.75
29460;PMS7003;16428;47.836;35.106;2023-03-01T16:04:17;31.75;27.75;19.75
29460;PMS7003;16428;47.836;35.106;2023-03-01T16:06:52;35.75;31.00;19.75
29460;PMS7003;16428;47.836;35.106;2023-03-01T16:09:25;33.25;29.25;22.75
29460;PMS7003;16428;47.836;35.106;2023-03-01T16:11:53;34.50;30.25;23.25
29460;PMS7003;16428;47.836;35.106;2023-03-01T16:14:21;40.25;29.25;22.00
29460;PMS7003;16428;47.836;35.106;2023-03-01T16:16:53;43.50;38.50;25.75
29460;PMS7003;16428;47.836;35.106;2023-03-01T16:19:22;26.50;25.50;20.00
29460;PMS7003;16428;47.836;35.106;2023-03-01T16:21:50;34.50;33.50;21.75
29460;PMS7003;16428;47.836;35.106;2023-03-01T16:24:18;39.25;31.00;23.00
29460;PMS7003;16428;47.836;35.106;2023-03-01T16:26:46;35.50;31.75;24.50
29460;PMS7003;16428;47.836;35.106;2023-03-01T16:29:14;32.75;32.00;24.25
29460;PMS7003;16428;47.836;35.106;2023-03-01T16:31:42;33.50;28.25;22.00
29460;PMS7003;16428;47.836;35.106;2023-03-01T16:34:11;41.25;32.75;23.75